sensor_id;sensor_type;location;lat;lon;timestamp;temperature;humidity
24682;DHT22;12802;53.390;-2.328;2023-08-20T00:05:13;16.40;99.90
24682;DHT22;12802;53.390;-2.328;2023-08-20T00:07:39;16.40;99.90
24682;DHT22;12802;53.390;-2.328;2023-08-20T00:12:32;16.40;99.90
24682;DHT22;12802;53.390;-2.328;2023-08-20T00:17:34;16.20;99.90
24682;DHT22;12802;53.390;-2.328;2023-08-20T00:20:01;16.30;99.90
24682;DHT22;12802;53.390;-2.328;2023-08-20T00:22:27;16.30;99.90
24682;DHT22;12802;53.390;-2.328;2023-08-20T00:24:53;16.30;99.90
24682;DHT22;12802;53.390;-2.328;2023-08-20T00:27:20;16.30;99.90
24682;DHT22;12802;53.390;-2.328;2023-08-20T00:29:46;16.30;99.90
24682;DHT22;12802;53.390;-2.328;2023-08-20T00:32:14;16.40;99.90
24682;DHT22;12802;53.390;-2.328;2023-08-20T00:34:40;16.40;99.90
24682;DHT22;12802;53.390;-2.328;2023-08-20T00:37:05;16.30;99.90
24682;DHT22;12802;53.390;-2.328;2023-08-20T00:39:31;16.30;99.90
24682;DHT22;12802;53.390;-2.328;2023-08-20T00:41:58;16.30;99.90
24682;DHT22;12802;53.390;-2.328;2023-08-20T00:44:24;16.30;99.90
24682;DHT22;12802;53.390;-2.328;2023-08-20T00:49:16;16.20;99.90
24682;DHT22;12802;53.390;-2.328;2023-08-20T00:51:42;16.10;99.90
24682;DHT22;12802;53.390;-2.328;2023-08-20T00:54:08;16.10;99.90
24682;DHT22;12802;53.390;-2.328;2023-08-20T00:56:35;16.00;99.90
24682;DHT22;12802;53.390;-2.328;2023-08-20T00:59:01;16.10;99.90
24682;DHT22;12802;53.390;-2.328;2023-08-20T01:01:27;16.10;99.90
24682;DHT22;12802;53.390;-2.328;2023-08-20T01:03:52;16.10;99.90
24682;DHT22;12802;53.390;-2.328;2023-08-20T01:06:46;16.10;99.90
24682;DHT22;12802;53.390;-2.328;2023-08-20T01:12:03;16.00;99.90
24682;DHT22;12802;53.390;-2.328;2023-08-20T01:14:29;16.00;99.90
24682;DHT22;12802;53.390;-2.328;2023-08-20T01:16:55;16.00;99.90
24682;DHT22;12802;53.390;-2.328;2023-08-20T01:19:22;16.00;99.90
24682;DHT22;12802;53.390;-2.328;2023-08-20T01:24:38;15.90;99.90
24682;DHT22;12802;53.390;-2.328;2023-08-20T01:32:11;16.00;99.90
24682;DHT22;12802;53.390;-2.328;2023-08-20T01:34:37;15.80;99.90
24682;DHT22;12802;53.390;-2.328;2023-08-20T01:37:03;15.70;99.90
24682;DHT22;12802;53.390;-2.328;2023-08-20T01:39:29;15.80;99.90
24682;DHT22;12802;53.390;-2.328;2023-08-20T01:41:55;15.80;99.90
24682;DHT22;12802;53.390;-2.328;2023-08-20T01:44:20;15.80;99.90
24682;DHT22;12802;53.390;-2.328;2023-08-20T01:46:46;15.80;99.90
24682;DHT22;12802;53.390;-2.328;2023-08-20T01:49:12;15.80;99.90
24682;DHT22;12802;53.390;-2.328;2023-08-20T01:51:37;15.80;99.90
24682;DHT22;12802;53.390;-2.328;2023-08-20T01:54:03;15.80;99.90
24682;DHT22;12802;53.390;-2.328;2023-08-20T01:56:29;15.70;99.90
24682;DHT22;12802;53.390;-2.328;2023-08-20T01:58:55;15.70;99.90
24682;DHT22;12802;53.390;-2.328;2023-08-20T02:01:21;15.70;99.90
24682;DHT22;12802;53.390;-2.328;2023-08-20T02:03:46;15.70;99.90
24682;DHT22;12802;53.390;-2.328;2023-08-20T02:06:12;15.60;99.90
24682;DHT22;12802;53.390;-2.328;2023-08-20T02:08:38;15.60;99.90
24682;DHT22;12802;53.390;-2.328;2023-08-20T02:11:04;15.60;99.90
24682;DHT22;12802;53.390;-2.328;2023-08-20T02:13:31;15.60;99.90
24682;DHT22;12802;53.390;-2.328;2023-08-20T02:16:04;15.60;99.90
24682;DHT22;12802;53.390;-2.328;2023-08-20T02:18:30;15.70;99.90
24682;DHT22;12802;53.390;-2.328;2023-08-20T02:20:57;15.70;99.90
24682;DHT22;12802;53.390;-2.328;2023-08-20T02:23:23;15.70;99.90
24682;DHT22;12802;53.390;-2.328;2023-08-20T02:25:51;15.80;99.90
24682;DHT22;12802;53.390;-2.328;2023-08-20T02:28:17;15.80;99.90
24682;DHT22;12802;53.390;-2.328;2023-08-20T02:30:46;15.70;99.90
24682;DHT22;12802;53.390;-2.328;2023-08-20T02:33:12;15.70;99.90
24682;DHT22;12802;53.390;-2.328;2023-08-20T02:35:39;15.70;99.90
24682;DHT22;12802;53.390;-2.328;2023-08-20T02:38:05;15.70;99.90
24682;DHT22;12802;53.390;-2.328;2023-08-20T02:40:32;15.60;99.90
24682;DHT22;12802;53.390;-2.328;2023-08-20T02:42:58;15.60;99.90
24682;DHT22;12802;53.390;-2.328;2023-08-20T02:45:24;15.60;99.90
24682;DHT22;12802;53.390;-2.328;2023-08-20T02:47:51;15.60;99.90
24682;DHT22;12802;53.390;-2.328;2023-08-20T02:50:18;15.60;99.90
24682;DHT22;12802;53.390;-2.328;2023-08-20T02:52:45;15.60;99.90
24682;DHT22;12802;53.390;-2.328;2023-08-20T02:55:11;15.70;99.90
24682;DHT22;12802;53.390;-2.328;2023-08-20T02:57:37;15.70;99.90
24682;DHT22;12802;53.390;-2.328;2023-08-20T03:00:03;15.70;99.90
24682;DHT22;12802;53.390;-2.328;2023-08-20T03:02:30;15.60;99.90
24682;DHT22;12802;53.390;-2.328;2023-08-20T03:04:56;15.70;99.90
24682;DHT22;12802;53.390;-2.328;2023-08-20T03:07:21;15.70;99.90
24682;DHT22;12802;53.390;-2.328;2023-08-20T03:09:48;15.70;99.90
24682;DHT22;12802;53.390;-2.328;2023-08-20T03:12:14;15.60;99.90
24682;DHT22;12802;53.390;-2.328;2023-08-20T03:14:39;15.60;99.90
24682;DHT22;12802;53.390;-2.328;2023-08-20T03:17:05;15.60;99.90
24682;DHT22;12802;53.390;-2.328;2023-08-20T03:24:27;15.70;99.90
24682;DHT22;12802;53.390;-2.328;2023-08-20T03:26:53;15.70;99.90
24682;DHT22;12802;53.390;-2.328;2023-08-20T03:29:18;15.70;99.90
24682;DHT22;12802;53.390;-2.328;2023-08-20T03:31:44;15.80;99.90
24682;DHT22;12802;53.390;-2.328;2023-08-20T03:34:10;15.80;99.90
24682;DHT22;12802;53.390;-2.328;2023-08-20T03:41:29;15.80;99.90
24682;DHT22;12802;53.390;-2.328;2023-08-20T03:43:54;15.80;99.90
24682;DHT22;12802;53.390;-2.328;2023-08-20T03:46:20;15.80;99.90
24682;DHT22;12802;53.390;-2.328;2023-08-20T03:48:46;15.70;99.90
24682;DHT22;12802;53.390;-2.328;2023-08-20T03:51:12;15.80;99.90
24682;DHT22;12802;53.390;-2.328;2023-08-20T03:53:38;15.80;99.90
24682;DHT22;12802;53.390;-2.328;2023-08-20T03:56:04;15.80;99.90
24682;DHT22;12802;53.390;-2.328;2023-08-20T03:58:31;15.80;99.90
24682;DHT22;12802;53.390;-2.328;2023-08-20T04:00:57;15.80;99.90
24682;DHT22;12802;53.390;-2.328;2023-08-20T04:03:23;15.80;99.90
24682;DHT22;12802;53.390;-2.328;2023-08-20T04:05:49;15.80;99.90
24682;DHT22;12802;53.390;-2.328;2023-08-20T04:08:16;15.90;99.90
24682;DHT22;12802;53.390;-2.328;2023-08-20T04:10:45;15.80;99.90
24682;DHT22;12802;53.390;-2.328;2023-08-20T04:13:13;15.80;99.90
24682;DHT22;12802;53.390;-2.328;2023-08-20T04:15:40;15.80;99.90
24682;DHT22;12802;53.390;-2.328;2023-08-20T04:18:06;15.80;99.90
24682;DHT22;12802;53.390;-2.328;2023-08-20T04:20:33;15.70;99.90
24682;DHT22;12802;53.390;-2.328;2023-08-20T04:22:59;15.70;99.90
24682;DHT22;12802;53.390;-2.328;2023-08-20T04:25:24;15.70;99.90
24682;DHT22;12802;53.390;-2.328;2023-08-20T04:27:50;15.70;99.90
24682;DHT22;12802;53.390;-2.328;2023-08-20T04:30:16;15.70;99.90
24682;DHT22;12802;53.390;-2.328;2023-08-20T04:32:42;15.70;99.90
24682;DHT22;12802;53.390;-2.328;2023-08-20T04:35:08;15.70;99.90
24682;DHT22;12802;53.390;-2.328;2023-08-20T04:37:35;15.70;99.90
24682;DHT22;12802;53.390;-2.328;2023-08-20T04:40:01;15.70;99.90
24682;DHT22;12802;53.390;-2.328;2023-08-20T04:42:30;15.80;99.90
24682;DHT22;12802;53.390;-2.328;2023-08-20T04:44:56;15.70;99.90
24682;DHT22;12802;53.390;-2.328;2023-08-20T04:47:22;15.80;99.90
24682;DHT22;12802;53.390;-2.328;2023-08-20T04:49:47;15.80;99.90
24682;DHT22;12802;53.390;-2.328;2023-08-20T04:52:13;15.80;99.90
24682;DHT22;12802;53.390;-2.328;2023-08-20T04:54:39;15.80;99.90
24682;DHT22;12802;53.390;-2.328;2023-08-20T04:57:05;15.80;99.90
24682;DHT22;12802;53.390;-2.328;2023-08-20T04:59:30;15.80;99.90
24682;DHT22;12802;53.390;-2.328;2023-08-20T05:02:31;15.80;99.90
24682;DHT22;12802;53.390;-2.328;2023-08-20T05:05:02;15.90;99.90
24682;DHT22;12802;53.390;-2.328;2023-08-20T05:07:27;15.90;99.90
24682;DHT22;12802;53.390;-2.328;2023-08-20T05:09:53;15.90;99.90
24682;DHT22;12802;53.390;-2.328;2023-08-20T05:12:19;15.80;99.90
24682;DHT22;12802;53.390;-2.328;2023-08-20T05:14:45;15.80;99.90
24682;DHT22;12802;53.390;-2.328;2023-08-20T05:17:12;15.80;99.90
24682;DHT22;12802;53.390;-2.328;2023-08-20T05:19:37;15.80;99.90
24682;DHT22;12802;53.390;-2.328;2023-08-20T05:24:32;15.80;99.90
24682;DHT22;12802;53.390;-2.328;2023-08-20T05:27:12;15.80;99.90
24682;DHT22;12802;53.390;-2.328;2023-08-20T05:32:10;15.70;99.90
24682;DHT22;12802;53.390;-2.328;2023-08-20T05:34:36;15.70;99.90
24682;DHT22;12802;53.390;-2.328;2023-08-20T05:37:02;15.70;99.90
24682;DHT22;12802;53.390;-2.328;2023-08-20T05:39:43;15.70;99.90
24682;DHT22;12802;53.390;-2.328;2023-08-20T05:42:09;15.70;99.90
24682;DHT22;12802;53.390;-2.328;2023-08-20T05:44:36;15.60;99.90
24682;DHT22;12802;53.390;-2.328;2023-08-20T05:47:03;15.60;99.90
24682;DHT22;12802;53.390;-2.328;2023-08-20T05:49:30;15.60;99.90
24682;DHT22;12802;53.390;-2.328;2023-08-20T05:51:56;15.50;99.90
24682;DHT22;12802;53.390;-2.328;2023-08-20T05:54:22;15.50;99.90
24682;DHT22;12802;53.390;-2.328;2023-08-20T05:56:51;15.60;99.90
24682;DHT22;12802;53.390;-2.328;2023-08-20T05:59:17;15.50;99.90
24682;DHT22;12802;53.390;-2.328;2023-08-20T06:01:42;15.50;99.90
24682;DHT22;12802;53.390;-2.328;2023-08-20T06:04:09;15.50;99.90
24682;DHT22;12802;53.390;-2.328;2023-08-20T06:06:35;15.50;99.90
24682;DHT22;12802;53.390;-2.328;2023-08-20T06:09:01;15.50;99.90
24682;DHT22;12802;53.390;-2.328;2023-08-20T06:11:26;15.50;99.90
24682;DHT22;12802;53.390;-2.328;2023-08-20T06:13:52;15.50;99.90
24682;DHT22;12802;53.390;-2.328;2023-08-20T06:16:18;15.50;99.90
24682;DHT22;12802;53.390;-2.328;2023-08-20T06:18:43;15.50;99.90
24682;DHT22;12802;53.390;-2.328;2023-08-20T06:21:09;15.50;99.90
24682;DHT22;12802;53.390;-2.328;2023-08-20T06:23:35;15.50;99.90
24682;DHT22;12802;53.390;-2.328;2023-08-20T06:26:00;15.50;99.90
24682;DHT22;12802;53.390;-2.328;2023-08-20T06:28:26;15.50;99.90
24682;DHT22;12802;53.390;-2.328;2023-08-20T06:30:52;15.60;99.90
24682;DHT22;12802;53.390;-2.328;2023-08-20T06:33:17;15.60;99.90
24682;DHT22;12802;53.390;-2.328;2023-08-20T06:35:43;15.70;99.90
24682;DHT22;12802;53.390;-2.328;2023-08-20T06:38:09;15.70;99.90
24682;DHT22;12802;53.390;-2.328;2023-08-20T06:40:35;15.80;99.90
24682;DHT22;12802;53.390;-2.328;2023-08-20T06:43:00;15.80;99.90
24682;DHT22;12802;53.390;-2.328;2023-08-20T06:45:26;15.90;99.90
24682;DHT22;12802;53.390;-2.328;2023-08-20T06:47:51;15.90;99.90
24682;DHT22;12802;53.390;-2.328;2023-08-20T06:50:17;15.90;99.90
24682;DHT22;12802;53.390;-2.328;2023-08-20T06:52:43;15.90;99.90
24682;DHT22;12802;53.390;-2.328;2023-08-20T06:55:09;16.00;99.90
24682;DHT22;12802;53.390;-2.328;2023-08-20T06:57:34;16.00;99.90
24682;DHT22;12802;53.390;-2.328;2023-08-20T07:00:00;16.00;99.90
24682;DHT22;12802;53.390;-2.328;2023-08-20T07:02:26;16.10;99.90
24682;DHT22;12802;53.390;-2.328;2023-08-20T07:04:52;16.10;99.90
24682;DHT22;12802;53.390;-2.328;2023-08-20T07:07:18;16.20;99.90
24682;DHT22;12802;53.390;-2.328;2023-08-20T07:09:43;16.30;99.90
24682;DHT22;12802;53.390;-2.328;2023-08-20T07:12:09;16.40;99.90
24682;DHT22;12802;53.390;-2.328;2023-08-20T07:14:35;16.50;99.90
24682;DHT22;12802;53.390;-2.328;2023-08-20T07:17:00;16.50;99.90
24682;DHT22;12802;53.390;-2.328;2023-08-20T07:19:28;16.60;99.90
24682;DHT22;12802;53.390;-2.328;2023-08-20T07:21:54;16.60;99.90
24682;DHT22;12802;53.390;-2.328;2023-08-20T07:24:21;16.70;99.90
24682;DHT22;12802;53.390;-2.328;2023-08-20T07:26:51;16.70;99.90
24682;DHT22;12802;53.390;-2.328;2023-08-20T07:29:17;16.70;99.90
24682;DHT22;12802;53.390;-2.328;2023-08-20T07:31:43;16.70;99.90
24682;DHT22;12802;53.390;-2.328;2023-08-20T07:34:09;16.70;99.90
24682;DHT22;12802;53.390;-2.328;2023-08-20T07:36:34;16.70;99.90
24682;DHT22;12802;53.390;-2.328;2023-08-20T07:39:00;16.70;99.90
24682;DHT22;12802;53.390;-2.328;2023-08-20T07:41:26;16.70;99.90
24682;DHT22;12802;53.390;-2.328;2023-08-20T07:43:52;16.70;99.90
24682;DHT22;12802;53.390;-2.328;2023-08-20T07:46:18;16.80;99.90
24682;DHT22;12802;53.390;-2.328;2023-08-20T07:48:44;16.80;99.90
24682;DHT22;12802;53.390;-2.328;2023-08-20T07:51:10;16.90;99.90
24682;DHT22;12802;53.390;-2.328;2023-08-20T07:53:36;17.00;99.90
24682;DHT22;12802;53.390;-2.328;2023-08-20T07:56:02;17.00;99.90
24682;DHT22;12802;53.390;-2.328;2023-08-20T07:58:27;17.00;99.90
24682;DHT22;12802;53.390;-2.328;2023-08-20T08:00:54;17.10;99.90
24682;DHT22;12802;53.390;-2.328;2023-08-20T08:03:20;17.10;99.90
24682;DHT22;12802;53.390;-2.328;2023-08-20T08:05:50;17.20;99.90
24682;DHT22;12802;53.390;-2.328;2023-08-20T08:08:16;17.30;99.90
24682;DHT22;12802;53.390;-2.328;2023-08-20T08:10:42;17.30;99.90
24682;DHT22;12802;53.390;-2.328;2023-08-20T08:13:13;17.30;99.90
24682;DHT22;12802;53.390;-2.328;2023-08-20T08:15:39;17.40;99.90
24682;DHT22;12802;53.390;-2.328;2023-08-20T08:18:05;17.40;99.90
24682;DHT22;12802;53.390;-2.328;2023-08-20T08:20:31;17.40;99.90
24682;DHT22;12802;53.390;-2.328;2023-08-20T08:22:57;17.40;99.90
24682;DHT22;12802;53.390;-2.328;2023-08-20T08:25:22;17.50;99.90
24682;DHT22;12802;53.390;-2.328;2023-08-20T08:27:48;17.50;99.90
24682;DHT22;12802;53.390;-2.328;2023-08-20T08:30:14;17.60;99.90
24682;DHT22;12802;53.390;-2.328;2023-08-20T08:32:40;17.50;99.90
24682;DHT22;12802;53.390;-2.328;2023-08-20T08:35:07;17.60;99.90
24682;DHT22;12802;53.390;-2.328;2023-08-20T08:37:32;17.60;99.90
24682;DHT22;12802;53.390;-2.328;2023-08-20T08:39:58;17.60;99.90
24682;DHT22;12802;53.390;-2.328;2023-08-20T08:42:24;17.70;99.90
24682;DHT22;12802;53.390;-2.328;2023-08-20T08:44:50;17.80;99.90
24682;DHT22;12802;53.390;-2.328;2023-08-20T08:47:17;17.90;99.90
24682;DHT22;12802;53.390;-2.328;2023-08-20T08:49:45;17.90;99.90
24682;DHT22;12802;53.390;-2.328;2023-08-20T08:52:12;18.00;99.90
24682;DHT22;12802;53.390;-2.328;2023-08-20T08:54:38;18.10;99.90
24682;DHT22;12802;53.390;-2.328;2023-08-20T08:57:04;18.20;99.90
24682;DHT22;12802;53.390;-2.328;2023-08-20T08:59:31;18.30;99.90
24682;DHT22;12802;53.390;-2.328;2023-08-20T09:01:56;18.20;99.90
24682;DHT22;12802;53.390;-2.328;2023-08-20T09:04:23;18.30;99.90
24682;DHT22;12802;53.390;-2.328;2023-08-20T09:06:49;18.40;99.90
24682;DHT22;12802;53.390;-2.328;2023-08-20T09:09:17;18.40;99.90
24682;DHT22;12802;53.390;-2.328;2023-08-20T09:11:44;18.60;99.90
24682;DHT22;12802;53.390;-2.328;2023-08-20T09:14:24;18.70;99.90
24682;DHT22;12802;53.390;-2.328;2023-08-20T09:17:00;19.00;99.90
24682;DHT22;12802;53.390;-2.328;2023-08-20T09:19:30;19.20;99.90
24682;DHT22;12802;53.390;-2.328;2023-08-20T09:21:58;19.30;99.90
24682;DHT22;12802;53.390;-2.328;2023-08-20T09:24:39;19.50;99.90
24682;DHT22;12802;53.390;-2.328;2023-08-20T09:27:05;19.80;99.90
24682;DHT22;12802;53.390;-2.328;2023-08-20T09:29:43;19.90;99.90
24682;DHT22;12802;53.390;-2.328;2023-08-20T09:34:42;20.00;99.90
24682;DHT22;12802;53.390;-2.328;2023-08-20T09:37:12;19.90;99.90
24682;DHT22;12802;53.390;-2.328;2023-08-20T09:39:38;19.60;99.90
24682;DHT22;12802;53.390;-2.328;2023-08-20T09:42:05;19.30;99.90
24682;DHT22;12802;53.390;-2.328;2023-08-20T09:44:33;19.20;99.90
24682;DHT22;12802;53.390;-2.328;2023-08-20T09:47:23;19.20;99.90
24682;DHT22;12802;53.390;-2.328;2023-08-20T09:49:49;19.30;99.90
24682;DHT22;12802;53.390;-2.328;2023-08-20T09:52:31;19.60;99.90
24682;DHT22;12802;53.390;-2.328;2023-08-20T09:55:16;19.70;99.90
24682;DHT22;12802;53.390;-2.328;2023-08-20T09:57:47;20.00;99.90
24682;DHT22;12802;53.390;-2.328;2023-08-20T10:00:14;20.10;99.90
24682;DHT22;12802;53.390;-2.328;2023-08-20T10:02:41;20.30;99.90
24682;DHT22;12802;53.390;-2.328;2023-08-20T10:05:08;20.30;99.90
24682;DHT22;12802;53.390;-2.328;2023-08-20T10:07:35;20.30;99.90
24682;DHT22;12802;53.390;-2.328;2023-08-20T10:10:06;20.40;99.90
24682;DHT22;12802;53.390;-2.328;2023-08-20T10:15:00;20.30;99.90
24682;DHT22;12802;53.390;-2.328;2023-08-20T10:17:28;20.20;99.90
24682;DHT22;12802;53.390;-2.328;2023-08-20T10:19:55;18.30;99.90
24682;DHT22;12802;53.390;-2.328;2023-08-20T10:22:22;20.20;99.90
24682;DHT22;12802;53.390;-2.328;2023-08-20T10:24:51;20.20;99.90
24682;DHT22;12802;53.390;-2.328;2023-08-20T10:27:34;20.20;99.90
24682;DHT22;12802;53.390;-2.328;2023-08-20T10:30:01;20.20;99.90
24682;DHT22;12802;53.390;-2.328;2023-08-20T10:32:52;20.30;99.90
24682;DHT22;12802;53.390;-2.328;2023-08-20T10:35:26;20.50;99.90
24682;DHT22;12802;53.390;-2.328;2023-08-20T10:40:52;21.00;99.90
24682;DHT22;12802;53.390;-2.328;2023-08-20T10:51:10;21.50;99.90
24682;DHT22;12802;53.390;-2.328;2023-08-20T10:53:36;21.50;99.90
24682;DHT22;12802;53.390;-2.328;2023-08-20T10:56:15;21.50;99.90
24682;DHT22;12802;53.390;-2.328;2023-08-20T10:58:46;21.30;99.90
24682;DHT22;12802;53.390;-2.328;2023-08-20T11:01:20;21.40;99.90
24682;DHT22;12802;53.390;-2.328;2023-08-20T11:06:14;21.90;99.90
24682;DHT22;12802;53.390;-2.328;2023-08-20T11:11:07;22.70;99.90
24682;DHT22;12802;53.390;-2.328;2023-08-20T11:13:34;22.50;99.90
24682;DHT22;12802;53.390;-2.328;2023-08-20T11:16:04;22.10;99.90
24682;DHT22;12802;53.390;-2.328;2023-08-20T11:18:33;22.10;99.90
24682;DHT22;12802;53.390;-2.328;2023-08-20T11:21:00;22.40;99.90
24682;DHT22;12802;53.390;-2.328;2023-08-20T11:23:26;22.60;99.90
24682;DHT22;12802;53.390;-2.328;2023-08-20T11:25:51;22.70;99.90
24682;DHT22;12802;53.390;-2.328;2023-08-20T11:28:17;22.70;99.90
24682;DHT22;12802;53.390;-2.328;2023-08-20T11:33:09;22.80;99.90
24682;DHT22;12802;53.390;-2.328;2023-08-20T11:35:35;22.80;99.90
24682;DHT22;12802;53.390;-2.328;2023-08-20T11:38:03;22.60;99.90
24682;DHT22;12802;53.390;-2.328;2023-08-20T11:40:29;22.60;99.90
24682;DHT22;12802;53.390;-2.328;2023-08-20T11:42:55;22.40;99.90
24682;DHT22;12802;53.390;-2.328;2023-08-20T11:45:20;22.20;99.90
24682;DHT22;12802;53.390;-2.328;2023-08-20T11:47:46;22.20;99.90
24682;DHT22;12802;53.390;-2.328;2023-08-20T11:50:12;22.10;99.90
24682;DHT22;12802;53.390;-2.328;2023-08-20T11:55:08;21.80;99.90
24682;DHT22;12802;53.390;-2.328;2023-08-20T11:57:34;21.80;99.90
24682;DHT22;12802;53.390;-2.328;2023-08-20T12:00:04;22.00;99.90
24682;DHT22;12802;53.390;-2.328;2023-08-20T12:02:40;22.20;99.90
24682;DHT22;12802;53.390;-2.328;2023-08-20T12:05:06;22.60;99.90
24682;DHT22;12802;53.390;-2.328;2023-08-20T12:07:32;22.70;99.90
24682;DHT22;12802;53.390;-2.328;2023-08-20T12:09:58;22.80;99.90
24682;DHT22;12802;53.390;-2.328;2023-08-20T12:12:23;22.70;99.90
24682;DHT22;12802;53.390;-2.328;2023-08-20T12:14:49;22.60;99.90
24682;DHT22;12802;53.390;-2.328;2023-08-20T12:17:18;22.30;99.90
24682;DHT22;12802;53.390;-2.328;2023-08-20T12:19:45;22.20;99.90
24682;DHT22;12802;53.390;-2.328;2023-08-20T12:22:11;22.20;99.90
24682;DHT22;12802;53.390;-2.328;2023-08-20T12:24:38;22.70;99.90
24682;DHT22;12802;53.390;-2.328;2023-08-20T12:27:03;22.90;99.90
24682;DHT22;12802;53.390;-2.328;2023-08-20T12:29:29;23.00;99.90
24682;DHT22;12802;53.390;-2.328;2023-08-20T12:31:55;22.80;99.90
24682;DHT22;12802;53.390;-2.328;2023-08-20T12:34:21;22.60;99.90
24682;DHT22;12802;53.390;-2.328;2023-08-20T12:36:51;22.40;99.90
24682;DHT22;12802;53.390;-2.328;2023-08-20T12:39:17;22.20;99.90
24682;DHT22;12802;53.390;-2.328;2023-08-20T12:41:42;22.00;99.90
24682;DHT22;12802;53.390;-2.328;2023-08-20T12:44:08;21.90;99.90
24682;DHT22;12802;53.390;-2.328;2023-08-20T12:46:34;21.80;99.90
24682;DHT22;12802;53.390;-2.328;2023-08-20T12:49:00;21.60;99.90
24682;DHT22;12802;53.390;-2.328;2023-08-20T12:51:26;21.50;99.90
24682;DHT22;12802;53.390;-2.328;2023-08-20T12:53:52;21.20;99.90
24682;DHT22;12802;53.390;-2.328;2023-08-20T12:56:17;21.20;99.90
24682;DHT22;12802;53.390;-2.328;2023-08-20T12:58:43;21.00;99.90
24682;DHT22;12802;53.390;-2.328;2023-08-20T13:01:09;20.90;99.90
24682;DHT22;12802;53.390;-2.328;2023-08-20T13:03:35;20.80;99.90
24682;DHT22;12802;53.390;-2.328;2023-08-20T13:06:01;20.70;99.90
24682;DHT22;12802;53.390;-2.328;2023-08-20T13:08:27;20.60;99.90
24682;DHT22;12802;53.390;-2.328;2023-08-20T13:10:55;20.50;99.90
24682;DHT22;12802;53.390;-2.328;2023-08-20T13:13:22;20.20;99.90
24682;DHT22;12802;53.390;-2.328;2023-08-20T13:15:49;19.90;99.90
24682;DHT22;12802;53.390;-2.328;2023-08-20T13:18:15;19.70;99.90
24682;DHT22;12802;53.390;-2.328;2023-08-20T13:20:41;19.60;99.90
24682;DHT22;12802;53.390;-2.328;2023-08-20T13:23:09;19.30;99.90
24682;DHT22;12802;53.390;-2.328;2023-08-20T13:25:35;19.10;99.90
24682;DHT22;12802;53.390;-2.328;2023-08-20T13:28:00;18.90;99.90
24682;DHT22;12802;53.390;-2.328;2023-08-20T13:30:26;18.80;99.90
24682;DHT22;12802;53.390;-2.328;2023-08-20T13:32:52;18.70;99.90
24682;DHT22;12802;53.390;-2.328;2023-08-20T13:35:18;18.60;99.90
24682;DHT22;12802;53.390;-2.328;2023-08-20T13:37:44;18.60;99.90
24682;DHT22;12802;53.390;-2.328;2023-08-20T13:40:10;18.60;99.90
24682;DHT22;12802;53.390;-2.328;2023-08-20T13:42:36;18.90;99.90
24682;DHT22;12802;53.390;-2.328;2023-08-20T13:45:02;19.10;99.90
24682;DHT22;12802;53.390;-2.328;2023-08-20T13:47:28;19.40;99.90
24682;DHT22;12802;53.390;-2.328;2023-08-20T13:49:53;19.70;99.90
24682;DHT22;12802;53.390;-2.328;2023-08-20T13:52:19;19.80;99.90
24682;DHT22;12802;53.390;-2.328;2023-08-20T13:54:46;20.00;99.90
24682;DHT22;12802;53.390;-2.328;2023-08-20T13:57:11;20.00;99.90
24682;DHT22;12802;53.390;-2.328;2023-08-20T13:59:37;20.00;99.90
24682;DHT22;12802;53.390;-2.328;2023-08-20T14:02:04;20.00;99.90
24682;DHT22;12802;53.390;-2.328;2023-08-20T14:04:30;20.00;99.90
24682;DHT22;12802;53.390;-2.328;2023-08-20T14:06:56;20.00;99.90
24682;DHT22;12802;53.390;-2.328;2023-08-20T14:09:22;19.90;99.90
24682;DHT22;12802;53.390;-2.328;2023-08-20T14:11:47;20.00;99.90
24682;DHT22;12802;53.390;-2.328;2023-08-20T14:14:13;20.00;99.90
24682;DHT22;12802;53.390;-2.328;2023-08-20T14:16:39;20.10;99.90
24682;DHT22;12802;53.390;-2.328;2023-08-20T14:19:05;20.00;99.90
24682;DHT22;12802;53.390;-2.328;2023-08-20T14:21:31;20.00;99.90
24682;DHT22;12802;53.390;-2.328;2023-08-20T14:23:57;20.00;99.90
24682;DHT22;12802;53.390;-2.328;2023-08-20T14:26:22;20.10;99.90
24682;DHT22;12802;53.390;-2.328;2023-08-20T14:28:49;20.10;99.90
24682;DHT22;12802;53.390;-2.328;2023-08-20T14:31:14;20.10;99.90
24682;DHT22;12802;53.390;-2.328;2023-08-20T14:33:40;20.30;99.90
24682;DHT22;12802;53.390;-2.328;2023-08-20T14:36:06;20.40;99.90
24682;DHT22;12802;53.390;-2.328;2023-08-20T14:38:32;20.40;99.90
24682;DHT22;12802;53.390;-2.328;2023-08-20T14:41:02;20.50;99.90
24682;DHT22;12802;53.390;-2.328;2023-08-20T14:43:29;20.40;99.90
24682;DHT22;12802;53.390;-2.328;2023-08-20T14:45:55;20.40;99.90
24682;DHT22;12802;53.390;-2.328;2023-08-20T14:48:24;20.50;99.90
24682;DHT22;12802;53.390;-2.328;2023-08-20T14:50:50;20.50;99.90
24682;DHT22;12802;53.390;-2.328;2023-08-20T14:53:17;20.60;99.90
24682;DHT22;12802;53.390;-2.328;2023-08-20T14:55:44;20.70;99.90
24682;DHT22;12802;53.390;-2.328;2023-08-20T14:58:09;20.80;99.90
24682;DHT22;12802;53.390;-2.328;2023-08-20T15:00:35;20.80;99.90
24682;DHT22;12802;53.390;-2.328;2023-08-20T15:03:01;21.10;99.90
24682;DHT22;12802;53.390;-2.328;2023-08-20T15:05:29;21.70;99.90
24682;DHT22;12802;53.390;-2.328;2023-08-20T15:07:55;22.40;99.90
24682;DHT22;12802;53.390;-2.328;2023-08-20T15:10:20;23.20;99.90
24682;DHT22;12802;53.390;-2.328;2023-08-20T15:12:46;22.80;99.90
24682;DHT22;12802;53.390;-2.328;2023-08-20T15:15:12;22.90;99.90
24682;DHT22;12802;53.390;-2.328;2023-08-20T15:17:38;23.80;99.90
24682;DHT22;12802;53.390;-2.328;2023-08-20T15:20:05;24.60;99.90
24682;DHT22;12802;53.390;-2.328;2023-08-20T15:22:40;25.30;99.90
24682;DHT22;12802;53.390;-2.328;2023-08-20T15:25:06;25.70;99.90
24682;DHT22;12802;53.390;-2.328;2023-08-20T15:27:37;26.20;99.90
24682;DHT22;12802;53.390;-2.328;2023-08-20T15:30:03;26.50;99.90
24682;DHT22;12802;53.390;-2.328;2023-08-20T15:32:30;26.40;99.90
24682;DHT22;12802;53.390;-2.328;2023-08-20T15:34:56;26.80;99.90
24682;DHT22;12802;53.390;-2.328;2023-08-20T15:37:21;26.90;99.90
24682;DHT22;12802;53.390;-2.328;2023-08-20T15:39:47;26.80;99.90
24682;DHT22;12802;53.390;-2.328;2023-08-20T15:42:13;26.30;99.90
24682;DHT22;12802;53.390;-2.328;2023-08-20T15:44:39;25.60;99.90
24682;DHT22;12802;53.390;-2.328;2023-08-20T15:47:08;25.00;99.90
24682;DHT22;12802;53.390;-2.328;2023-08-20T15:49:34;24.90;99.90
24682;DHT22;12802;53.390;-2.328;2023-08-20T15:52:00;25.30;99.90
24682;DHT22;12802;53.390;-2.328;2023-08-20T15:54:26;25.60;99.90
24682;DHT22;12802;53.390;-2.328;2023-08-20T15:56:52;26.00;99.90
24682;DHT22;12802;53.390;-2.328;2023-08-20T15:59:19;26.10;99.90
24682;DHT22;12802;53.390;-2.328;2023-08-20T16:01:45;26.30;99.90
24682;DHT22;12802;53.390;-2.328;2023-08-20T16:04:10;26.30;99.90
24682;DHT22;12802;53.390;-2.328;2023-08-20T16:06:36;26.40;99.90
24682;DHT22;12802;53.390;-2.328;2023-08-20T16:09:02;26.50;99.90
24682;DHT22;12802;53.390;-2.328;2023-08-20T16:11:34;26.50;99.90
24682;DHT22;12802;53.390;-2.328;2023-08-20T16:14:00;26.10;99.90
24682;DHT22;12802;53.390;-2.328;2023-08-20T16:16:26;26.00;99.90